sensor_id;sensor_type;location;lat;lon;timestamp;temperature;humidity
66610;DHT22;53468;48.276;14.416;2022-07-25T00:04:17;19.60;99.90
66610;DHT22;53468;48.276;14.416;2022-07-25T00:09:51;19.40;99.90
66610;DHT22;53468;48.276;14.416;2022-07-25T00:15:24;19.40;99.90
66610;DHT22;53468;48.276;14.416;2022-07-25T00:20:57;19.40;99.90
66610;DHT22;53468;48.276;14.416;2022-07-25T00:26:32;19.30;99.90
66610;DHT22;53468;48.276;14.416;2022-07-25T00:32:06;19.30;99.90
66610;DHT22;53468;48.276;14.416;2022-07-25T00:37:38;19.20;99.90
66610;DHT22;53468;48.276;14.416;2022-07-25T00:43:10;19.20;99.90
66610;DHT22;53468;48.276;14.416;2022-07-25T00:48:44;19.10;99.90
66610;DHT22;53468;48.276;14.416;2022-07-25T00:54:16;19.10;99.90
66610;DHT22;53468;48.276;14.416;2022-07-25T00:59:50;19.00;99.90
66610;DHT22;53468;48.276;14.416;2022-07-25T01:05:24;18.90;99.90
66610;DHT22;53468;48.276;14.416;2022-07-25T01:10:57;18.90;99.90
66610;DHT22;53468;48.276;14.416;2022-07-25T01:16:30;18.90;99.90
66610;DHT22;53468;48.276;14.416;2022-07-25T01:22:03;18.80;99.90
66610;DHT22;53468;48.276;14.416;2022-07-25T01:27:37;18.80;99.90
66610;DHT22;53468;48.276;14.416;2022-07-25T01:33:14;18.70;99.90
66610;DHT22;53468;48.276;14.416;2022-07-25T01:38:52;18.60;99.90
66610;DHT22;53468;48.276;14.416;2022-07-25T01:44:24;18.60;99.90
66610;DHT22;53468;48.276;14.416;2022-07-25T01:49:57;18.60;99.90
66610;DHT22;53468;48.276;14.416;2022-07-25T01:55:30;18.50;99.90
66610;DHT22;53468;48.276;14.416;2022-07-25T02:01:03;18.40;99.90
66610;DHT22;53468;48.276;14.416;2022-07-25T02:06:36;18.40;99.90
66610;DHT22;53468;48.276;14.416;2022-07-25T02:12:12;18.30;99.90
66610;DHT22;53468;48.276;14.416;2022-07-25T02:17:44;18.30;99.90
66610;DHT22;53468;48.276;14.416;2022-07-25T02:23:17;18.10;99.90
66610;DHT22;53468;48.276;14.416;2022-07-25T02:28:51;18.20;99.90
66610;DHT22;53468;48.276;14.416;2022-07-25T02:34:24;18.10;99.90
66610;DHT22;53468;48.276;14.416;2022-07-25T02:39:56;18.10;99.90
66610;DHT22;53468;48.276;14.416;2022-07-25T02:45:30;18.00;99.90
66610;DHT22;53468;48.276;14.416;2022-07-25T02:51:03;18.00;99.90
66610;DHT22;53468;48.276;14.416;2022-07-25T02:56:35;17.90;99.90
66610;DHT22;53468;48.276;14.416;2022-07-25T03:02:11;17.80;99.90
66610;DHT22;53468;48.276;14.416;2022-07-25T03:07:44;17.80;99.90
66610;DHT22;53468;48.276;14.416;2022-07-25T03:13:16;17.70;99.90
66610;DHT22;53468;48.276;14.416;2022-07-25T03:18:50;17.60;99.90
66610;DHT22;53468;48.276;14.416;2022-07-25T03:24:25;17.50;99.90
66610;DHT22;53468;48.276;14.416;2022-07-25T03:29:57;17.50;99.90
66610;DHT22;53468;48.276;14.416;2022-07-25T03:35:31;17.40;99.90
66610;DHT22;53468;48.276;14.416;2022-07-25T03:41:05;17.40;99.90
66610;DHT22;53468;48.276;14.416;2022-07-25T03:46:38;17.30;99.90
66610;DHT22;53468;48.276;14.416;2022-07-25T03:52:12;17.30;99.90
66610;DHT22;53468;48.276;14.416;2022-07-25T03:57:44;17.30;99.90
66610;DHT22;53468;48.276;14.416;2022-07-25T04:03:18;17.30;99.90
66610;DHT22;53468;48.276;14.416;2022-07-25T04:08:53;17.30;99.90
66610;DHT22;53468;48.276;14.416;2022-07-25T04:14:26;17.30;99.90
66610;DHT22;53468;48.276;14.416;2022-07-25T04:19:59;17.40;99.90
66610;DHT22;53468;48.276;14.416;2022-07-25T04:25:33;17.40;99.90
66610;DHT22;53468;48.276;14.416;2022-07-25T04:31:05;17.50;99.90
66610;DHT22;53468;48.276;14.416;2022-07-25T04:36:39;17.60;99.90
66610;DHT22;53468;48.276;14.416;2022-07-25T04:42:13;17.60;99.90
66610;DHT22;53468;48.276;14.416;2022-07-25T04:47:46;17.70;99.90
66610;DHT22;53468;48.276;14.416;2022-07-25T04:53:18;17.80;99.90
66610;DHT22;53468;48.276;14.416;2022-07-25T04:58:52;17.90;99.90
66610;DHT22;53468;48.276;14.416;2022-07-25T05:04:24;18.00;99.90
66610;DHT22;53468;48.276;14.416;2022-07-25T05:09:56;18.20;99.90
66610;DHT22;53468;48.276;14.416;2022-07-25T05:15:30;18.40;99.90
66610;DHT22;53468;48.276;14.416;2022-07-25T05:21:02;18.50;99.90
66610;DHT22;53468;48.276;14.416;2022-07-25T05:26:34;18.60;99.90
66610;DHT22;53468;48.276;14.416;2022-07-25T05:32:08;18.70;99.90
66610;DHT22;53468;48.276;14.416;2022-07-25T05:37:40;18.90;99.90
66610;DHT22;53468;48.276;14.416;2022-07-25T05:43:12;19.00;99.90
66610;DHT22;53468;48.276;14.416;2022-07-25T05:48:46;19.10;99.90
66610;DHT22;53468;48.276;14.416;2022-07-25T05:54:19;19.30;99.90
66610;DHT22;53468;48.276;14.416;2022-07-25T05:59:51;19.40;99.90
66610;DHT22;53468;48.276;14.416;2022-07-25T06:05:25;19.70;99.90
66610;DHT22;53468;48.276;14.416;2022-07-25T06:10:58;19.90;99.90
66610;DHT22;53468;48.276;14.416;2022-07-25T06:16:30;20.10;99.90
66610;DHT22;53468;48.276;14.416;2022-07-25T06:22:04;20.30;99.90
66610;DHT22;53468;48.276;14.416;2022-07-25T06:27:37;20.60;99.90
66610;DHT22;53468;48.276;14.416;2022-07-25T06:33:10;20.60;99.90
66610;DHT22;53468;48.276;14.416;2022-07-25T06:38:43;20.80;99.90
66610;DHT22;53468;48.276;14.416;2022-07-25T06:44:15;21.10;99.80
66610;DHT22;53468;48.276;14.416;2022-07-25T06:49:47;21.50;98.40
66610;DHT22;53468;48.276;14.416;2022-07-25T06:55:21;22.20;97.10
66610;DHT22;53468;48.276;14.416;2022-07-25T07:00:53;23.20;96.20
66610;DHT22;53468;48.276;14.416;2022-07-25T07:06:25;24.40;93.30
66610;DHT22;53468;48.276;14.416;2022-07-25T07:11:59;25.60;91.00
66610;DHT22;53468;48.276;14.416;2022-07-25T07:17:31;26.20;92.30
66610;DHT22;53468;48.276;14.416;2022-07-25T07:23:03;27.00;88.60
66610;DHT22;53468;48.276;14.416;2022-07-25T07:28:38;27.70;87.20
66610;DHT22;53468;48.276;14.416;2022-07-25T07:34:10;28.30;86.30
66610;DHT22;53468;48.276;14.416;2022-07-25T07:39:43;28.10;85.80
66610;DHT22;53468;48.276;14.416;2022-07-25T07:45:19;28.10;85.90
66610;DHT22;53468;48.276;14.416;2022-07-25T07:50:51;28.30;86.30
66610;DHT22;53468;48.276;14.416;2022-07-25T07:56:23;28.50;85.00
66610;DHT22;53468;48.276;14.416;2022-07-25T08:01:57;28.80;87.10
66610;DHT22;53468;48.276;14.416;2022-07-25T08:07:29;29.20;83.70
66610;DHT22;53468;48.276;14.416;2022-07-25T08:13:03;29.00;79.20
66610;DHT22;53468;48.276;14.416;2022-07-25T08:18:44;29.70;81.60
66610;DHT22;53468;48.276;14.416;2022-07-25T08:24:16;30.00;78.20
66610;DHT22;53468;48.276;14.416;2022-07-25T08:29:48;30.10;81.00
66610;DHT22;53468;48.276;14.416;2022-07-25T08:35:23;30.20;77.70
66610;DHT22;53468;48.276;14.416;2022-07-25T08:40:56;30.10;77.50
66610;DHT22;53468;48.276;14.416;2022-07-25T08:46:28;30.10;77.90
66610;DHT22;53468;48.276;14.416;2022-07-25T08:52:02;30.20;78.40
66610;DHT22;53468;48.276;14.416;2022-07-25T08:57:35;30.40;80.90
66610;DHT22;53468;48.276;14.416;2022-07-25T09:03:11;30.20;77.80
66610;DHT22;53468;48.276;14.416;2022-07-25T09:08:52;30.20;77.40
66610;DHT22;53468;48.276;14.416;2022-07-25T09:14:24;30.20;77.40
66610;DHT22;53468;48.276;14.416;2022-07-25T09:19:56;30.30;75.40
66610;DHT22;53468;48.276;14.416;2022-07-25T09:25:30;30.60;80.40
66610;DHT22;53468;48.276;14.416;2022-07-25T09:31:02;30.70;80.90
66610;DHT22;53468;48.276;14.416;2022-07-25T09:36:34;30.60;76.40
66610;DHT22;53468;48.276;14.416;2022-07-25T09:42:21;30.80;83.80
66610;DHT22;53468;48.276;14.416;2022-07-25T09:47:57;31.10;77.90
66610;DHT22;53468;48.276;14.416;2022-07-25T09:53:29;30.90;78.40
66610;DHT22;53468;48.276;14.416;2022-07-25T09:59:03;31.00;75.60
66610;DHT22;53468;48.276;14.416;2022-07-25T10:04:43;31.00;74.50
66610;DHT22;53468;48.276;14.416;2022-07-25T10:10:24;31.20;79.40
66610;DHT22;53468;48.276;14.416;2022-07-25T10:15:57;31.20;77.60
66610;DHT22;53468;48.276;14.416;2022-07-25T10:21:30;31.50;74.00
66610;DHT22;53468;48.276;14.416;2022-07-25T10:27:07;31.40;76.20
66610;DHT22;53468;48.276;14.416;2022-07-25T10:32:48;31.40;75.00
66610;DHT22;53468;48.276;14.416;2022-07-25T10:38:23;31.60;75.60
66610;DHT22;53468;48.276;14.416;2022-07-25T10:43:59;31.60;74.30
66610;DHT22;53468;48.276;14.416;2022-07-25T10:49:37;31.60;75.30
66610;DHT22;53468;48.276;14.416;2022-07-25T10:55:21;31.60;76.00
66610;DHT22;53468;48.276;14.416;2022-07-25T11:00:54;32.00;75.50
66610;DHT22;53468;48.276;14.416;2022-07-25T11:06:36;31.80;73.20
66610;DHT22;53468;48.276;14.416;2022-07-25T11:12:09;31.80;75.50
66610;DHT22;53468;48.276;14.416;2022-07-25T11:17:49;31.80;78.00
66610;DHT22;53468;48.276;14.416;2022-07-25T11:23:23;32.10;75.20
66610;DHT22;53468;48.276;14.416;2022-07-25T11:28:55;32.10;74.30
66610;DHT22;53468;48.276;14.416;2022-07-25T11:34:30;32.10;74.80
66610;DHT22;53468;48.276;14.416;2022-07-25T11:40:06;32.00;72.50
66610;DHT22;53468;48.276;14.416;2022-07-25T11:45:38;32.10;76.10
66610;DHT22;53468;48.276;14.416;2022-07-25T11:51:13;32.00;76.80
66610;DHT22;53468;48.276;14.416;2022-07-25T11:56:47;32.30;78.30
66610;DHT22;53468;48.276;14.416;2022-07-25T12:02:23;32.50;76.00
66610;DHT22;53468;48.276;14.416;2022-07-25T12:07:56;32.70;72.10
66610;DHT22;53468;48.276;14.416;2022-07-25T12:13:31;32.60;71.30
66610;DHT22;53468;48.276;14.416;2022-07-25T12:19:06;32.70;75.00
66610;DHT22;53468;48.276;14.416;2022-07-25T12:24:39;32.70;73.00
66610;DHT22;53468;48.276;14.416;2022-07-25T12:30:13;32.90;75.70
66610;DHT22;53468;48.276;14.416;2022-07-25T12:35:45;32.90;72.30
66610;DHT22;53468;48.276;14.416;2022-07-25T12:41:18;33.20;73.50
66610;DHT22;53468;48.276;14.416;2022-07-25T12:46:53;33.50;72.60
66610;DHT22;53468;48.276;14.416;2022-07-25T12:52:25;33.10;69.70
66610;DHT22;53468;48.276;14.416;2022-07-25T12:57:58;33.30;69.70
66610;DHT22;53468;48.276;14.416;2022-07-25T13:03:32;33.50;67.40
66610;DHT22;53468;48.276;14.416;2022-07-25T13:09:04;33.40;68.40
66610;DHT22;53468;48.276;14.416;2022-07-25T13:14:36;33.40;70.60
66610;DHT22;53468;48.276;14.416;2022-07-25T13:20:11;33.60;70.30
66610;DHT22;53468;48.276;14.416;2022-07-25T13:25:45;33.60;67.30
66610;DHT22;53468;48.276;14.416;2022-07-25T13:31:22;33.50;69.00
66610;DHT22;53468;48.276;14.416;2022-07-25T13:37:03;33.60;70.50
66610;DHT22;53468;48.276;14.416;2022-07-25T13:42:40;33.70;66.90
66610;DHT22;53468;48.276;14.416;2022-07-25T13:48:36;33.90;66.10
66610;DHT22;53468;48.276;14.416;2022-07-25T13:54:29;33.50;67.10
66610;DHT22;53468;48.276;14.416;2022-07-25T14:00:38;33.80;67.80
66610;DHT22;53468;48.276;14.416;2022-07-25T14:06:33;33.80;68.40
66610;DHT22;53468;48.276;14.416;2022-07-25T14:12:38;33.80;65.50
66610;DHT22;53468;48.276;14.416;2022-07-25T14:18:20;34.00;62.40
66610;DHT22;53468;48.276;14.416;2022-07-25T14:24:30;34.00;64.50
66610;DHT22;53468;48.276;14.416;2022-07-25T14:31:00;34.00;64.50
66610;DHT22;53468;48.276;14.416;2022-07-25T15:06:17;34.10;64.60
66610;DHT22;53468;48.276;14.416;2022-07-25T15:11:54;34.00;65.40
66610;DHT22;53468;48.276;14.416;2022-07-25T15:17:28;34.00;65.00
66610;DHT22;53468;48.276;14.416;2022-07-25T15:23:02;34.00;66.10
66610;DHT22;53468;48.276;14.416;2022-07-25T15:28:36;33.90;65.20
66610;DHT22;53468;48.276;14.416;2022-07-25T15:34:10;33.80;64.00
66610;DHT22;53468;48.276;14.416;2022-07-25T15:39:45;33.80;64.40
66610;DHT22;53468;48.276;14.416;2022-07-25T15:45:17;33.80;66.50
66610;DHT22;53468;48.276;14.416;2022-07-25T15:50:50;33.90;65.80
66610;DHT22;53468;48.276;14.416;2022-07-25T15:56:26;33.80;64.00
66610;DHT22;53468;48.276;14.416;2022-07-25T16:01:59;33.90;63.90
66610;DHT22;53468;48.276;14.416;2022-07-25T16:07:34;33.80;64.60
66610;DHT22;53468;48.276;14.416;2022-07-25T16:13:08;33.80;66.10
66610;DHT22;53468;48.276;14.416;2022-07-25T16:18:40;33.70;64.60
66610;DHT22;53468;48.276;14.416;2022-07-25T16:24:12;33.80;69.00
66610;DHT22;53468;48.276;14.416;2022-07-25T16:29:46;33.80;64.40
66610;DHT22;53468;48.276;14.416;2022-07-25T16:35:18;33.90;69.00
66610;DHT22;53468;48.276;14.416;2022-07-25T16:40:51;33.70;66.30
66610;DHT22;53468;48.276;14.416;2022-07-25T16:46:24;33.60;65.70
66610;DHT22;53468;48.276;14.416;2022-07-25T16:51:57;33.40;68.50
66610;DHT22;53468;48.276;14.416;2022-07-25T16:57:30;33.30;66.70
66610;DHT22;53468;48.276;14.416;2022-07-25T17:03:06;33.10;67.70
66610;DHT22;53468;48.276;14.416;2022-07-25T17:08:38;33.00;67.40
66610;DHT22;53468;48.276;14.416;2022-07-25T17:14:11;32.80;69.90
66610;DHT22;53468;48.276;14.416;2022-07-25T17:19:44;32.60;71.00
66610;DHT22;53468;48.276;14.416;2022-07-25T17:25:16;32.30;71.70
66610;DHT22;53468;48.276;14.416;2022-07-25T17:30:49;32.10;71.80
66610;DHT22;53468;48.276;14.416;2022-07-25T17:36:22;31.90;72.90
66610;DHT22;53468;48.276;14.416;2022-07-25T17:41:55;31.60;72.90
66610;DHT22;53468;48.276;14.416;2022-07-25T17:47:27;31.40;72.90
66610;DHT22;53468;48.276;14.416;2022-07-25T17:53:02;31.00;75.20
66610;DHT22;53468;48.276;14.416;2022-07-25T17:58:34;30.70;77.30
66610;DHT22;53468;48.276;14.416;2022-07-25T18:04:06;30.50;77.90
66610;DHT22;53468;48.276;14.416;2022-07-25T18:09:39;30.10;82.30
66610;DHT22;53468;48.276;14.416;2022-07-25T18:15:12;29.80;85.40
66610;DHT22;53468;48.276;14.416;2022-07-25T18:20:45;29.70;86.00
66610;DHT22;53468;48.276;14.416;2022-07-25T18:26:18;29.50;84.30
66610;DHT22;53468;48.276;14.416;2022-07-25T18:31:51;29.10;86.80
66610;DHT22;53468;48.276;14.416;2022-07-25T18:37:23;28.80;89.70
66610;DHT22;53468;48.276;14.416;2022-07-25T18:42:57;28.40;89.70
66610;DHT22;53468;48.276;14.416;2022-07-25T18:48:29;28.30;87.20
66610;DHT22;53468;48.276;14.416;2022-07-25T18:54:01;28.00;88.20
66610;DHT22;53468;48.276;14.416;2022-07-25T18:59:35;27.80;88.00
66610;DHT22;53468;48.276;14.416;2022-07-25T19:05:08;27.40;90.90
66610;DHT22;53468;48.276;14.416;2022-07-25T19:10:40;27.30;91.50
66610;DHT22;53468;48.276;14.416;2022-07-25T19:16:14;27.00;91.00
66610;DHT22;53468;48.276;14.416;2022-07-25T19:21:47;26.90;92.40
66610;DHT22;53468;48.276;14.416;2022-07-25T19:27:19;26.80;91.60
66610;DHT22;53468;48.276;14.416;2022-07-25T19:32:55;26.70;92.20
66610;DHT22;53468;48.276;14.416;2022-07-25T19:38:27;26.60;92.60
66610;DHT22;53468;48.276;14.416;2022-07-25T19:43:59;26.30;91.30
66610;DHT22;53468;48.276;14.416;2022-07-25T19:49:33;26.20;91.30
66610;DHT22;53468;48.276;14.416;2022-07-25T19:55:06;25.90;92.70
66610;DHT22;53468;48.276;14.416;2022-07-25T20:00:38;25.80;92.90
66610;DHT22;53468;48.276;14.416;2022-07-25T20:06:13;25.60;93.80
66610;DHT22;53468;48.276;14.416;2022-07-25T20:11:45;25.50;92.80
66610;DHT22;53468;48.276;14.416;2022-07-25T20:17:18;25.40;93.80
66610;DHT22;53468;48.276;14.416;2022-07-25T20:22:51;25.30;94.70
66610;DHT22;53468;48.276;14.416;2022-07-25T20:28:26;25.10;95.00
66610;DHT22;53468;48.276;14.416;2022-07-25T20:33:58;25.00;95.00
66610;DHT22;53468;48.276;14.416;2022-07-25T20:39:32;24.90;95.10
66610;DHT22;53468;48.276;14.416;2022-07-25T20:45:05;24.90;95.20
66610;DHT22;53468;48.276;14.416;2022-07-25T20:50:38;24.80;95.70
66610;DHT22;53468;48.276;14.416;2022-07-25T20:56:12;24.80;95.30
66610;DHT22;53468;48.276;14.416;2022-07-25T21:01:45;24.70;96.50
66610;DHT22;53468;48.276;14.416;2022-07-25T21:07:17;24.70;95.90
66610;DHT22;53468;48.276;14.416;2022-07-25T21:12:52;24.70;96.40
66610;DHT22;53468;48.276;14.416;2022-07-25T21:18:26;24.50;96.70
66610;DHT22;53468;48.276;14.416;2022-07-25T21:23:58;24.50;98.60
66610;DHT22;53468;48.276;14.416;2022-07-25T21:29:32;24.50;98.80
66610;DHT22;53468;48.276;14.416;2022-07-25T21:35:05;24.40;97.80
66610;DHT22;53468;48.276;14.416;2022-07-25T21:40:38;24.40;99.00
66610;DHT22;53468;48.276;14.416;2022-07-25T21:46:12;24.40;99.10
66610;DHT22;53468;48.276;14.416;2022-07-25T21:51:44;24.40;98.90
66610;DHT22;53468;48.276;14.416;2022-07-25T21:57:17;24.40;99.30
66610;DHT22;53468;48.276;14.416;2022-07-25T22:02:50;24.30;99.90
66610;DHT22;53468;48.276;14.416;2022-07-25T22:08:23;24.30;99.90
66610;DHT22;53468;48.276;14.416;2022-07-25T22:13:55;24.20;99.90
66610;DHT22;53468;48.276;14.416;2022-07-25T22:19:29;24.30;99.90
66610;DHT22;53468;48.276;14.416;2022-07-25T22:25:01;24.20;99.80
66610;DHT22;53468;48.276;14.416;2022-07-25T22:30:33;24.30;99.40
66610;DHT22;53468;48.276;14.416;2022-07-25T22:36:08;24.40;99.40
66610;DHT22;53468;48.276;14.416;2022-07-25T22:41:40;24.40;98.50
66610;DHT22;53468;48.276;14.416;2022-07-25T22:47:13;24.50;98.90
66610;DHT22;53468;48.276;14.416;2022-07-25T22:52:48;24.50;99.30
66610;DHT22;53468;48.276;14.416;2022-07-25T22:58:20;24.50;99.60
66610;DHT22;53468;48.276;14.416;2022-07-25T23:03:52;24.50;99.90
66610;DHT22;53468;48.276;14.416;2022-07-25T23:09:26;24.20;99.90
66610;DHT22;53468;48.276;14.416;2022-07-25T23:14:58;23.90;99.90
66610;DHT22;53468;48.276;14.416;2022-07-25T23:20:30;23.60;99.90
66610;DHT22;53468;48.276;14.416;2022-07-25T23:26:04;23.20;99.90
66610;DHT22;53468;48.276;14.416;2022-07-25T23:31:36;21.10;99.90
66610;DHT22;53468;48.276;14.416;2022-07-25T23:37:08;20.40;99.90
66610;DHT22;53468;48.276;14.416;2022-07-25T23:42:42;20.00;99.90
66610;DHT22;53468;48.276;14.416;2022-07-25T23:48:15;20.00;99.90
66610;DHT22;53468;48.276;14.416;2022-07-25T23:53:47;20.00;99.90
66610;DHT22;53468;48.276;14.416;2022-07-25T23:59:22;20.00;99.90
